sensor_id;sensor_type;location;lat;lon;timestamp;P1;durP1;ratioP1;P2;durP2;ratioP2
42742;SDS011;28397;44.552;-0.848;2023-04-03T00:01:31;11.70;;;3.10;;
42742;SDS011;28397;44.552;-0.848;2023-04-03T00:03:57;9.55;;;2.75;;
42742;SDS011;28397;44.552;-0.848;2023-04-03T00:06:23;10.80;;;3.08;;
42742;SDS011;28397;44.552;-0.848;2023-04-03T00:08:50;10.65;;;2.58;;
42742;SDS011;28397;44.552;-0.848;2023-04-03T00:11:16;13.88;;;2.97;;
42742;SDS011;28397;44.552;-0.848;2023-04-03T00:13:42;10.60;;;2.80;;
42742;SDS011;28397;44.552;-0.848;2023-04-03T00:16:08;8.95;;;2.75;;
42742;SDS011;28397;44.552;-0.848;2023-04-03T00:18:35;7.45;;;2.53;;
42742;SDS011;28397;44.552;-0.848;2023-04-03T00:21:01;12.13;;;2.97;;
42742;SDS011;28397;44.552;-0.848;2023-04-03T00:23:27;9.93;;;2.60;;
42742;SDS011;28397;44.552;-0.848;2023-04-03T00:25:53;10.75;;;2.60;;
42742;SDS011;28397;44.552;-0.848;2023-04-03T00:28:19;11.88;;;3.13;;
42742;SDS011;28397;44.552;-0.848;2023-04-03T00:30:45;8.77;;;2.70;;
42742;SDS011;28397;44.552;-0.848;2023-04-03T00:33:11;9.95;;;2.67;;
42742;SDS011;28397;44.552;-0.848;2023-04-03T00:35:38;7.95;;;2.55;;
42742;SDS011;28397;44.552;-0.848;2023-04-03T00:38:04;10.48;;;2.42;;
42742;SDS011;28397;44.552;-0.848;2023-04-03T00:40:33;12.50;;;2.90;;
42742;SDS011;28397;44.552;-0.848;2023-04-03T00:43:01;10.18;;;2.65;;
42742;SDS011;28397;44.552;-0.848;2023-04-03T00:45:35;8.63;;;2.50;;
42742;SDS011;28397;44.552;-0.848;2023-04-03T00:48:03;7.85;;;2.50;;
42742;SDS011;28397;44.552;-0.848;2023-04-03T00:50:32;9.18;;;2.53;;
42742;SDS011;28397;44.552;-0.848;2023-04-03T00:53:02;6.78;;;2.50;;
42742;SDS011;28397;44.552;-0.848;2023-04-03T00:55:30;6.68;;;2.28;;
42742;SDS011;28397;44.552;-0.848;2023-04-03T00:57:56;8.82;;;2.53;;
42742;SDS011;28397;44.552;-0.848;2023-04-03T01:00:22;6.15;;;2.03;;
42742;SDS011;28397;44.552;-0.848;2023-04-03T01:02:49;8.30;;;2.20;;
42742;SDS011;28397;44.552;-0.848;2023-04-03T01:05:16;7.85;;;2.30;;
42742;SDS011;28397;44.552;-0.848;2023-04-03T01:07:44;5.90;;;2.65;;
42742;SDS011;28397;44.552;-0.848;2023-04-03T01:10:11;8.73;;;2.20;;
42742;SDS011;28397;44.552;-0.848;2023-04-03T01:12:41;7.22;;;2.30;;
42742;SDS011;28397;44.552;-0.848;2023-04-03T01:15:09;7.45;;;2.53;;
42742;SDS011;28397;44.552;-0.848;2023-04-03T01:25:41;4.25;;;2.00;;
42742;SDS011;28397;44.552;-0.848;2023-04-03T01:28:12;5.38;;;2.33;;
42742;SDS011;28397;44.552;-0.848;2023-04-03T01:30:43;6.28;;;2.35;;
42742;SDS011;28397;44.552;-0.848;2023-04-03T01:33:15;5.07;;;2.10;;
42742;SDS011;28397;44.552;-0.848;2023-04-03T01:35:40;4.40;;;2.10;;
42742;SDS011;28397;44.552;-0.848;2023-04-03T01:38:06;4.75;;;2.55;;
42742;SDS011;28397;44.552;-0.848;2023-04-03T01:40:32;5.72;;;2.22;;
42742;SDS011;28397;44.552;-0.848;2023-04-03T01:42:58;7.93;;;2.40;;
42742;SDS011;28397;44.552;-0.848;2023-04-03T01:45:23;5.35;;;2.25;;
42742;SDS011;28397;44.552;-0.848;2023-04-03T01:47:49;5.10;;;2.70;;
42742;SDS011;28397;44.552;-0.848;2023-04-03T01:50:15;5.63;;;2.25;;
42742;SDS011;28397;44.552;-0.848;2023-04-03T01:52:40;5.78;;;2.00;;
42742;SDS011;28397;44.552;-0.848;2023-04-03T01:55:06;5.85;;;2.33;;
42742;SDS011;28397;44.552;-0.848;2023-04-03T01:57:32;5.65;;;2.10;;
42742;SDS011;28397;44.552;-0.848;2023-04-03T01:59:58;4.88;;;2.30;;
42742;SDS011;28397;44.552;-0.848;2023-04-03T02:02:23;4.95;;;2.30;;
42742;SDS011;28397;44.552;-0.848;2023-04-03T02:04:49;5.65;;;2.30;;
42742;SDS011;28397;44.552;-0.848;2023-04-03T02:07:15;4.03;;;2.20;;
42742;SDS011;28397;44.552;-0.848;2023-04-03T02:09:40;9.18;;;2.60;;
42742;SDS011;28397;44.552;-0.848;2023-04-03T02:12:06;5.82;;;2.42;;
42742;SDS011;28397;44.552;-0.848;2023-04-03T02:14:32;5.85;;;2.40;;
42742;SDS011;28397;44.552;-0.848;2023-04-03T02:16:58;4.32;;;2.20;;
42742;SDS011;28397;44.552;-0.848;2023-04-03T02:19:25;6.35;;;2.63;;
42742;SDS011;28397;44.552;-0.848;2023-04-03T02:21:51;5.47;;;2.60;;
42742;SDS011;28397;44.552;-0.848;2023-04-03T02:24:17;6.05;;;2.70;;
42742;SDS011;28397;44.552;-0.848;2023-04-03T02:26:42;5.30;;;2.40;;
42742;SDS011;28397;44.552;-0.848;2023-04-03T02:29:08;7.30;;;2.67;;
42742;SDS011;28397;44.552;-0.848;2023-04-03T02:31:34;4.85;;;2.60;;
42742;SDS011;28397;44.552;-0.848;2023-04-03T02:34:00;4.72;;;2.38;;
42742;SDS011;28397;44.552;-0.848;2023-04-03T02:36:25;4.68;;;2.60;;
42742;SDS011;28397;44.552;-0.848;2023-04-03T02:38:51;4.50;;;2.40;;
42742;SDS011;28397;44.552;-0.848;2023-04-03T02:41:17;4.78;;;2.55;;
42742;SDS011;28397;44.552;-0.848;2023-04-03T02:43:42;4.78;;;2.70;;
42742;SDS011;28397;44.552;-0.848;2023-04-03T02:46:08;4.63;;;2.40;;
42742;SDS011;28397;44.552;-0.848;2023-04-03T02:48:34;3.60;;;2.58;;
42742;SDS011;28397;44.552;-0.848;2023-04-03T02:51:00;4.55;;;2.55;;
42742;SDS011;28397;44.552;-0.848;2023-04-03T02:53:26;3.25;;;2.30;;
42742;SDS011;28397;44.552;-0.848;2023-04-03T02:55:52;5.28;;;2.40;;
42742;SDS011;28397;44.552;-0.848;2023-04-03T02:58:17;3.90;;;2.50;;
42742;SDS011;28397;44.552;-0.848;2023-04-03T03:00:43;6.15;;;2.60;;
42742;SDS011;28397;44.552;-0.848;2023-04-03T03:03:09;4.22;;;2.53;;
42742;SDS011;28397;44.552;-0.848;2023-04-03T03:05:34;6.10;;;2.40;;
42742;SDS011;28397;44.552;-0.848;2023-04-03T03:08:01;4.47;;;2.60;;
42742;SDS011;28397;44.552;-0.848;2023-04-03T03:10:27;4.93;;;2.50;;
42742;SDS011;28397;44.552;-0.848;2023-04-03T03:12:52;6.30;;;2.70;;
42742;SDS011;28397;44.552;-0.848;2023-04-03T03:15:18;4.35;;;2.30;;
42742;SDS011;28397;44.552;-0.848;2023-04-03T03:17:44;6.65;;;2.70;;
42742;SDS011;28397;44.552;-0.848;2023-04-03T03:20:10;4.10;;;2.65;;
42742;SDS011;28397;44.552;-0.848;2023-04-03T03:22:39;4.63;;;2.70;;
42742;SDS011;28397;44.552;-0.848;2023-04-03T03:25:05;4.32;;;2.70;;
42742;SDS011;28397;44.552;-0.848;2023-04-03T03:27:31;5.22;;;2.72;;
42742;SDS011;28397;44.552;-0.848;2023-04-03T03:29:56;5.80;;;2.60;;
42742;SDS011;28397;44.552;-0.848;2023-04-03T03:32:22;4.78;;;2.80;;
42742;SDS011;28397;44.552;-0.848;2023-04-03T03:34:47;4.80;;;2.90;;
42742;SDS011;28397;44.552;-0.848;2023-04-03T03:37:13;5.82;;;2.70;;
42742;SDS011;28397;44.552;-0.848;2023-04-03T03:39:39;5.00;;;2.90;;
42742;SDS011;28397;44.552;-0.848;2023-04-03T03:42:05;4.13;;;2.53;;
42742;SDS011;28397;44.552;-0.848;2023-04-03T03:44:30;4.55;;;2.80;;
42742;SDS011;28397;44.552;-0.848;2023-04-03T03:46:56;6.88;;;2.95;;
42742;SDS011;28397;44.552;-0.848;2023-04-03T03:49:22;4.15;;;2.72;;
42742;SDS011;28397;44.552;-0.848;2023-04-03T03:51:47;4.63;;;2.80;;
42742;SDS011;28397;44.552;-0.848;2023-04-03T03:54:13;4.53;;;2.60;;
42742;SDS011;28397;44.552;-0.848;2023-04-03T03:56:39;4.80;;;3.00;;
42742;SDS011;28397;44.552;-0.848;2023-04-03T03:59:05;4.22;;;2.83;;
42742;SDS011;28397;44.552;-0.848;2023-04-03T04:01:31;5.18;;;2.70;;
42742;SDS011;28397;44.552;-0.848;2023-04-03T04:03:56;3.90;;;2.92;;
42742;SDS011;28397;44.552;-0.848;2023-04-03T04:06:22;7.22;;;3.38;;
42742;SDS011;28397;44.552;-0.848;2023-04-03T04:08:48;4.82;;;2.95;;
42742;SDS011;28397;44.552;-0.848;2023-04-03T04:11:14;4.75;;;2.95;;
42742;SDS011;28397;44.552;-0.848;2023-04-03T04:13:39;5.40;;;3.28;;
42742;SDS011;28397;44.552;-0.848;2023-04-03T04:16:05;4.93;;;2.88;;
42742;SDS011;28397;44.552;-0.848;2023-04-03T04:18:32;6.75;;;3.22;;
42742;SDS011;28397;44.552;-0.848;2023-04-03T04:20:58;5.55;;;3.30;;
42742;SDS011;28397;44.552;-0.848;2023-04-03T04:23:23;5.65;;;3.25;;
42742;SDS011;28397;44.552;-0.848;2023-04-03T04:25:49;5.30;;;3.25;;
42742;SDS011;28397;44.552;-0.848;2023-04-03T04:28:15;4.20;;;3.17;;
42742;SDS011;28397;44.552;-0.848;2023-04-03T04:30:41;7.10;;;3.17;;
42742;SDS011;28397;44.552;-0.848;2023-04-03T04:33:07;4.60;;;3.30;;
42742;SDS011;28397;44.552;-0.848;2023-04-03T04:35:33;4.55;;;3.38;;
42742;SDS011;28397;44.552;-0.848;2023-04-03T04:37:59;5.82;;;3.47;;
42742;SDS011;28397;44.552;-0.848;2023-04-03T04:40:25;4.97;;;3.30;;
42742;SDS011;28397;44.552;-0.848;2023-04-03T04:42:51;4.60;;;3.20;;
42742;SDS011;28397;44.552;-0.848;2023-04-03T04:45:17;6.65;;;3.28;;
42742;SDS011;28397;44.552;-0.848;2023-04-03T04:47:43;5.63;;;3.38;;
42742;SDS011;28397;44.552;-0.848;2023-04-03T04:50:09;6.15;;;3.38;;
42742;SDS011;28397;44.552;-0.848;2023-04-03T04:52:35;5.05;;;3.30;;
42742;SDS011;28397;44.552;-0.848;2023-04-03T04:55:01;5.18;;;3.50;;
42742;SDS011;28397;44.552;-0.848;2023-04-03T04:57:26;6.53;;;3.63;;
42742;SDS011;28397;44.552;-0.848;2023-04-03T04:59:52;7.70;;;3.70;;
42742;SDS011;28397;44.552;-0.848;2023-04-03T05:02:18;5.30;;;3.63;;
42742;SDS011;28397;44.552;-0.848;2023-04-03T05:04:43;6.00;;;3.50;;
42742;SDS011;28397;44.552;-0.848;2023-04-03T05:07:09;6.70;;;3.60;;
42742;SDS011;28397;44.552;-0.848;2023-04-03T05:09:35;7.90;;;3.85;;
42742;SDS011;28397;44.552;-0.848;2023-04-03T05:12:01;6.32;;;3.78;;
42742;SDS011;28397;44.552;-0.848;2023-04-03T05:14:27;4.90;;;3.60;;
42742;SDS011;28397;44.552;-0.848;2023-04-03T05:16:53;5.47;;;3.40;;
42742;SDS011;28397;44.552;-0.848;2023-04-03T05:19:20;4.72;;;3.60;;
42742;SDS011;28397;44.552;-0.848;2023-04-03T05:21:46;6.25;;;3.67;;
42742;SDS011;28397;44.552;-0.848;2023-04-03T05:24:12;6.57;;;3.58;;
42742;SDS011;28397;44.552;-0.848;2023-04-03T05:26:41;5.40;;;3.40;;
42742;SDS011;28397;44.552;-0.848;2023-04-03T05:29:07;6.32;;;3.72;;
42742;SDS011;28397;44.552;-0.848;2023-04-03T05:31:33;6.32;;;3.70;;
42742;SDS011;28397;44.552;-0.848;2023-04-03T05:33:59;6.15;;;3.80;;
42742;SDS011;28397;44.552;-0.848;2023-04-03T05:36:25;6.65;;;3.67;;
42742;SDS011;28397;44.552;-0.848;2023-04-03T05:38:51;5.88;;;3.90;;
42742;SDS011;28397;44.552;-0.848;2023-04-03T05:41:17;7.82;;;3.75;;
42742;SDS011;28397;44.552;-0.848;2023-04-03T05:43:43;6.57;;;3.97;;
42742;SDS011;28397;44.552;-0.848;2023-04-03T05:46:12;9.18;;;4.93;;
42742;SDS011;28397;44.552;-0.848;2023-04-03T05:48:40;5.82;;;3.60;;
42742;SDS011;28397;44.552;-0.848;2023-04-03T05:51:06;6.45;;;3.92;;
42742;SDS011;28397;44.552;-0.848;2023-04-03T05:53:38;5.40;;;3.80;;
42742;SDS011;28397;44.552;-0.848;2023-04-03T05:56:04;8.45;;;4.10;;
42742;SDS011;28397;44.552;-0.848;2023-04-03T05:58:30;5.15;;;4.07;;
42742;SDS011;28397;44.552;-0.848;2023-04-03T06:00:56;4.72;;;4.00;;
42742;SDS011;28397;44.552;-0.848;2023-04-03T06:03:22;5.03;;;3.88;;
42742;SDS011;28397;44.552;-0.848;2023-04-03T06:05:48;7.72;;;4.35;;
42742;SDS011;28397;44.552;-0.848;2023-04-03T06:08:14;5.78;;;3.78;;
42742;SDS011;28397;44.552;-0.848;2023-04-03T06:10:40;7.72;;;4.28;;
42742;SDS011;28397;44.552;-0.848;2023-04-03T06:13:06;8.13;;;4.30;;
42742;SDS011;28397;44.552;-0.848;2023-04-03T06:15:32;7.18;;;4.22;;
42742;SDS011;28397;44.552;-0.848;2023-04-03T06:17:58;7.75;;;3.90;;
42742;SDS011;28397;44.552;-0.848;2023-04-03T06:20:25;6.47;;;4.30;;
42742;SDS011;28397;44.552;-0.848;2023-04-03T06:22:50;5.97;;;3.95;;
42742;SDS011;28397;44.552;-0.848;2023-04-03T06:25:16;7.05;;;3.67;;
42742;SDS011;28397;44.552;-0.848;2023-04-03T06:27:43;8.05;;;4.38;;
42742;SDS011;28397;44.552;-0.848;2023-04-03T06:30:10;5.80;;;3.90;;
42742;SDS011;28397;44.552;-0.848;2023-04-03T06:32:36;7.50;;;4.07;;
42742;SDS011;28397;44.552;-0.848;2023-04-03T06:35:03;8.60;;;3.95;;
42742;SDS011;28397;44.552;-0.848;2023-04-03T06:37:29;8.25;;;4.13;;
42742;SDS011;28397;44.552;-0.848;2023-04-03T06:39:56;9.43;;;4.97;;
42742;SDS011;28397;44.552;-0.848;2023-04-03T06:42:22;6.80;;;4.20;;
42742;SDS011;28397;44.552;-0.848;2023-04-03T06:44:48;6.38;;;4.43;;
42742;SDS011;28397;44.552;-0.848;2023-04-03T06:47:14;6.80;;;4.03;;
42742;SDS011;28397;44.552;-0.848;2023-04-03T06:49:41;9.00;;;4.00;;
42742;SDS011;28397;44.552;-0.848;2023-04-03T06:52:08;6.85;;;4.38;;
42742;SDS011;28397;44.552;-0.848;2023-04-03T06:54:34;6.97;;;4.00;;
42742;SDS011;28397;44.552;-0.848;2023-04-03T06:57:00;5.70;;;4.13;;
42742;SDS011;28397;44.552;-0.848;2023-04-03T06:59:27;7.85;;;4.20;;
42742;SDS011;28397;44.552;-0.848;2023-04-03T07:01:53;7.20;;;4.18;;
42742;SDS011;28397;44.552;-0.848;2023-04-03T07:04:18;9.07;;;3.95;;
42742;SDS011;28397;44.552;-0.848;2023-04-03T07:06:47;6.65;;;4.15;;
42742;SDS011;28397;44.552;-0.848;2023-04-03T07:09:13;6.60;;;4.18;;
42742;SDS011;28397;44.552;-0.848;2023-04-03T07:11:40;8.40;;;4.32;;
42742;SDS011;28397;44.552;-0.848;2023-04-03T07:14:06;4.88;;;3.90;;
42742;SDS011;28397;44.552;-0.848;2023-04-03T07:16:33;7.07;;;4.20;;
42742;SDS011;28397;44.552;-0.848;2023-04-03T07:19:00;9.23;;;4.00;;
42742;SDS011;28397;44.552;-0.848;2023-04-03T07:21:26;7.22;;;4.45;;
42742;SDS011;28397;44.552;-0.848;2023-04-03T07:23:52;7.53;;;4.00;;
42742;SDS011;28397;44.552;-0.848;2023-04-03T07:26:18;9.00;;;4.00;;
42742;SDS011;28397;44.552;-0.848;2023-04-03T07:28:45;6.40;;;4.00;;
42742;SDS011;28397;44.552;-0.848;2023-04-03T07:31:13;9.07;;;3.67;;
42742;SDS011;28397;44.552;-0.848;2023-04-03T07:33:40;7.88;;;3.75;;
42742;SDS011;28397;44.552;-0.848;2023-04-03T07:36:07;8.32;;;3.60;;
42742;SDS011;28397;44.552;-0.848;2023-04-03T07:38:34;11.73;;;4.05;;
42742;SDS011;28397;44.552;-0.848;2023-04-03T07:41:01;5.85;;;3.83;;
42742;SDS011;28397;44.552;-0.848;2023-04-03T07:43:28;7.35;;;3.60;;
42742;SDS011;28397;44.552;-0.848;2023-04-03T07:45:53;8.18;;;3.90;;
42742;SDS011;28397;44.552;-0.848;2023-04-03T07:48:20;9.60;;;4.53;;
42742;SDS011;28397;44.552;-0.848;2023-04-03T07:50:47;7.53;;;3.75;;
42742;SDS011;28397;44.552;-0.848;2023-04-03T07:53:13;8.80;;;4.30;;
42742;SDS011;28397;44.552;-0.848;2023-04-03T07:55:39;7.97;;;3.92;;
42742;SDS011;28397;44.552;-0.848;2023-04-03T07:58:11;6.78;;;3.85;;
42742;SDS011;28397;44.552;-0.848;2023-04-03T08:00:39;16.20;;;3.92;;
42742;SDS011;28397;44.552;-0.848;2023-04-03T08:03:06;9.65;;;3.70;;
42742;SDS011;28397;44.552;-0.848;2023-04-03T08:05:36;7.30;;;3.78;;
42742;SDS011;28397;44.552;-0.848;2023-04-03T08:08:03;7.05;;;3.60;;
42742;SDS011;28397;44.552;-0.848;2023-04-03T08:10:30;9.27;;;3.80;;
42742;SDS011;28397;44.552;-0.848;2023-04-03T08:12:56;8.27;;;3.85;;
42742;SDS011;28397;44.552;-0.848;2023-04-03T08:15:22;7.00;;;3.60;;
42742;SDS011;28397;44.552;-0.848;2023-04-03T08:17:48;7.85;;;3.67;;
42742;SDS011;28397;44.552;-0.848;2023-04-03T08:20:14;8.23;;;3.78;;
42742;SDS011;28397;44.552;-0.848;2023-04-03T08:22:40;7.85;;;3.88;;
42742;SDS011;28397;44.552;-0.848;2023-04-03T08:25:05;7.93;;;3.88;;
42742;SDS011;28397;44.552;-0.848;2023-04-03T08:27:31;8.20;;;3.70;;
42742;SDS011;28397;44.552;-0.848;2023-04-03T08:29:57;8.32;;;3.40;;
42742;SDS011;28397;44.552;-0.848;2023-04-03T08:32:23;9.20;;;3.53;;
42742;SDS011;28397;44.552;-0.848;2023-04-03T08:34:49;7.00;;;3.40;;
42742;SDS011;28397;44.552;-0.848;2023-04-03T08:37:14;10.75;;;3.67;;
42742;SDS011;28397;44.552;-0.848;2023-04-03T08:39:41;8.25;;;3.33;;
42742;SDS011;28397;44.552;-0.848;2023-04-03T08:44:48;9.63;;;4.05;;
42742;SDS011;28397;44.552;-0.848;2023-04-03T08:50:24;6.20;;;3.25;;
42742;SDS011;28397;44.552;-0.848;2023-04-03T08:52:55;8.63;;;3.40;;
42742;SDS011;28397;44.552;-0.848;2023-04-03T08:55:23;9.38;;;3.25;;
42742;SDS011;28397;44.552;-0.848;2023-04-03T09:00:27;8.30;;;3.30;;
42742;SDS011;28397;44.552;-0.848;2023-04-03T09:02:57;7.53;;;3.40;;
42742;SDS011;28397;44.552;-0.848;2023-04-03T09:05:32;8.93;;;3.30;;
42742;SDS011;28397;44.552;-0.848;2023-04-03T09:11:04;9.25;;;3.47;;
42742;SDS011;28397;44.552;-0.848;2023-04-03T09:13:49;8.73;;;3.65;;
42742;SDS011;28397;44.552;-0.848;2023-04-03T09:16:25;8.10;;;3.40;;
42742;SDS011;28397;44.552;-0.848;2023-04-03T09:18:59;8.93;;;3.35;;
42742;SDS011;28397;44.552;-0.848;2023-04-03T09:21:36;8.45;;;3.38;;
42742;SDS011;28397;44.552;-0.848;2023-04-03T09:24:07;7.95;;;3.20;;
42742;SDS011;28397;44.552;-0.848;2023-04-03T09:29:37;7.13;;;2.80;;
42742;SDS011;28397;44.552;-0.848;2023-04-03T09:34:54;6.30;;;2.60;;
42742;SDS011;28397;44.552;-0.848;2023-04-03T09:37:33;7.90;;;3.13;;
42742;SDS011;28397;44.552;-0.848;2023-04-03T09:40:02;5.15;;;2.70;;
42742;SDS011;28397;44.552;-0.848;2023-04-03T09:42:29;7.30;;;2.75;;
42742;SDS011;28397;44.552;-0.848;2023-04-03T09:44:57;6.45;;;3.15;;
42742;SDS011;28397;44.552;-0.848;2023-04-03T09:47:25;4.65;;;2.50;;
42742;SDS011;28397;44.552;-0.848;2023-04-03T09:52:34;6.13;;;2.60;;
42742;SDS011;28397;44.552;-0.848;2023-04-03T09:55:07;5.70;;;2.40;;
42742;SDS011;28397;44.552;-0.848;2023-04-03T09:58:03;5.85;;;2.42;;
42742;SDS011;28397;44.552;-0.848;2023-04-03T10:00:46;5.72;;;2.40;;
42742;SDS011;28397;44.552;-0.848;2023-04-03T10:03:38;7.60;;;2.40;;
42742;SDS011;28397;44.552;-0.848;2023-04-03T10:06:21;9.32;;;2.10;;
42742;SDS011;28397;44.552;-0.848;2023-04-03T10:09:02;3.90;;;2.08;;
42742;SDS011;28397;44.552;-0.848;2023-04-03T10:11:56;4.32;;;1.90;;
42742;SDS011;28397;44.552;-0.848;2023-04-03T10:14:35;2.92;;;1.70;;
42742;SDS011;28397;44.552;-0.848;2023-04-03T10:17:05;4.13;;;1.83;;
42742;SDS011;28397;44.552;-0.848;2023-04-03T10:25:42;3.17;;;1.65;;
42742;SDS011;28397;44.552;-0.848;2023-04-03T10:31:03;2.63;;;1.63;;
42742;SDS011;28397;44.552;-0.848;2023-04-03T10:45:01;4.47;;;2.10;;
42742;SDS011;28397;44.552;-0.848;2023-04-03T10:50:27;4.75;;;1.60;;
42742;SDS011;28397;44.552;-0.848;2023-04-03T10:58:58;3.70;;;1.33;;
42742;SDS011;28397;44.552;-0.848;2023-04-03T11:01:33;2.30;;;1.25;;
42742;SDS011;28397;44.552;-0.848;2023-04-03T11:04:03;2.83;;;1.50;;
42742;SDS011;28397;44.552;-0.848;2023-04-03T11:06:38;4.28;;;1.67;;
42742;SDS011;28397;44.552;-0.848;2023-04-03T11:12:00;2.00;;;1.30;;
42742;SDS011;28397;44.552;-0.848;2023-04-03T11:14:35;2.70;;;1.55;;
42742;SDS011;28397;44.552;-0.848;2023-04-03T11:19:45;3.55;;;1.42;;
42742;SDS011;28397;44.552;-0.848;2023-04-03T11:22:35;2.67;;;1.40;;
42742;SDS011;28397;44.552;-0.848;2023-04-03T11:25:17;2.45;;;1.30;;
42742;SDS011;28397;44.552;-0.848;2023-04-03T11:27:49;2.83;;;1.40;;
42742;SDS011;28397;44.552;-0.848;2023-04-03T11:38:52;2.47;;;1.40;;
42742;SDS011;28397;44.552;-0.848;2023-04-03T11:41:38;2.45;;;1.50;;
42742;SDS011;28397;44.552;-0.848;2023-04-03T11:44:05;4.15;;;1.63;;
42742;SDS011;28397;44.552;-0.848;2023-04-03T11:46:55;4.70;;;1.75;;
42742;SDS011;28397;44.552;-0.848;2023-04-03T12:05:52;2.80;;;1.30;;
42742;SDS011;28397;44.552;-0.848;2023-04-03T12:21:21;3.15;;;1.50;;
42742;SDS011;28397;44.552;-0.848;2023-04-03T12:26:38;3.17;;;1.30;;
42742;SDS011;28397;44.552;-0.848;2023-04-03T12:46:28;8.95;;;1.52;;
42742;SDS011;28397;44.552;-0.848;2023-04-03T12:51:54;2.97;;;1.50;;
42742;SDS011;28397;44.552;-0.848;2023-04-03T12:54:29;3.42;;;1.40;;
42742;SDS011;28397;44.552;-0.848;2023-04-03T12:57:17;4.03;;;1.60;;
42742;SDS011;28397;44.552;-0.848;2023-04-03T12:59:44;3.05;;;1.52;;
42742;SDS011;28397;44.552;-0.848;2023-04-03T13:02:20;5.45;;;1.70;;
42742;SDS011;28397;44.552;-0.848;2023-04-03T13:04:58;4.78;;;1.58;;
42742;SDS011;28397;44.552;-0.848;2023-04-03T13:07:31;4.53;;;1.50;;
42742;SDS011;28397;44.552;-0.848;2023-04-03T13:12:33;4.55;;;2.08;;
42742;SDS011;28397;44.552;-0.848;2023-04-03T13:15:12;2.88;;;1.67;;
42742;SDS011;28397;44.552;-0.848;2023-04-03T13:17:41;3.20;;;1.40;;
42742;SDS011;28397;44.552;-0.848;2023-04-03T13:22:52;5.68;;;1.95;;
42742;SDS011;28397;44.552;-0.848;2023-04-03T13:25:33;5.53;;;2.30;;
42742;SDS011;28397;44.552;-0.848;2023-04-03T13:28:01;12.32;;;2.58;;
42742;SDS011;28397;44.552;-0.848;2023-04-03T13:30:30;5.15;;;1.75;;
42742;SDS011;28397;44.552;-0.848;2023-04-03T13:33:03;4.95;;;1.70;;
42742;SDS011;28397;44.552;-0.848;2023-04-03T13:35:43;3.50;;;1.48;;
42742;SDS011;28397;44.552;-0.848;2023-04-03T13:40:50;4.70;;;1.67;;
42742;SDS011;28397;44.552;-0.848;2023-04-03T13:43:22;4.90;;;1.33;;
42742;SDS011;28397;44.552;-0.848;2023-04-03T13:46:32;7.95;;;1.80;;
42742;SDS011;28397;44.552;-0.848;2023-04-03T13:48:41;4.72;;;1.80;;
42742;SDS011;28397;44.552;-0.848;2023-04-03T13:53:45;6.95;;;1.70;;
42742;SDS011;28397;44.552;-0.848;2023-04-03T13:56:24;17.88;;;2.45;;
42742;SDS011;28397;44.552;-0.848;2023-04-03T14:04:20;4.50;;;1.33;;
42742;SDS011;28397;44.552;-0.848;2023-04-03T14:06:52;3.47;;;1.40;;
42742;SDS011;28397;44.552;-0.848;2023-04-03T14:09:19;3.30;;;1.65;;
42742;SDS011;28397;44.552;-0.848;2023-04-03T14:11:46;4.38;;;1.73;;
42742;SDS011;28397;44.552;-0.848;2023-04-03T14:14:18;3.50;;;1.40;;
42742;SDS011;28397;44.552;-0.848;2023-04-03T14:16:47;4.25;;;1.50;;
42742;SDS011;28397;44.552;-0.848;2023-04-03T14:19:18;4.43;;;1.40;;
42742;SDS011;28397;44.552;-0.848;2023-04-03T14:21:46;3.25;;;1.70;;
42742;SDS011;28397;44.552;-0.848;2023-04-03T14:24:12;3.42;;;1.40;;
42742;SDS011;28397;44.552;-0.848;2023-04-03T14:26:38;5.40;;;1.55;;
42742;SDS011;28397;44.552;-0.848;2023-04-03T14:29:04;4.85;;;1.63;;
42742;SDS011;28397;44.552;-0.848;2023-04-03T14:31:29;4.40;;;1.45;;
42742;SDS011;28397;44.552;-0.848;2023-04-03T14:33:55;13.10;;;1.90;;
42742;SDS011;28397;44.552;-0.848;2023-04-03T14:36:22;15.48;;;2.10;;
42742;SDS011;28397;44.552;-0.848;2023-04-03T14:38:53;9.95;;;1.83;;
42742;SDS011;28397;44.552;-0.848;2023-04-03T14:41:21;7.25;;;1.65;;
42742;SDS011;28397;44.552;-0.848;2023-04-03T14:43:49;5.55;;;1.45;;
42742;SDS011;28397;44.552;-0.848;2023-04-03T14:46:17;7.15;;;1.50;;
42742;SDS011;28397;44.552;-0.848;2023-04-03T14:48:46;4.07;;;1.50;;
42742;SDS011;28397;44.552;-0.848;2023-04-03T14:51:13;4.72;;;2.13;;
42742;SDS011;28397;44.552;-0.848;2023-04-03T14:53:40;4.25;;;1.75;;
42742;SDS011;28397;44.552;-0.848;2023-04-03T14:56:26;4.15;;;1.67;;
42742;SDS011;28397;44.552;-0.848;2023-04-03T14:58:56;5.22;;;2.00;;
42742;SDS011;28397;44.552;-0.848;2023-04-03T15:01:24;3.92;;;1.70;;
42742;SDS011;28397;44.552;-0.848;2023-04-03T15:03:50;4.75;;;1.88;;
42742;SDS011;28397;44.552;-0.848;2023-04-03T15:06:16;4.82;;;1.90;;
42742;SDS011;28397;44.552;-0.848;2023-04-03T15:08:42;7.65;;;2.03;;
42742;SDS011;28397;44.552;-0.848;2023-04-03T15:11:09;6.00;;;1.98;;
42742;SDS011;28397;44.552;-0.848;2023-04-03T15:13:35;5.88;;;2.20;;
42742;SDS011;28397;44.552;-0.848;2023-04-03T15:16:02;4.90;;;2.05;;
42742;SDS011;28397;44.552;-0.848;2023-04-03T15:18:30;5.70;;;2.38;;
42742;SDS011;28397;44.552;-0.848;2023-04-03T15:20:58;7.50;;;2.90;;
42742;SDS011;28397;44.552;-0.848;2023-04-03T15:23:24;6.40;;;2.97;;
42742;SDS011;28397;44.552;-0.848;2023-04-03T15:25:51;7.15;;;2.80;;
42742;SDS011;28397;44.552;-0.848;2023-04-03T15:28:19;5.72;;;2.55;;
42742;SDS011;28397;44.552;-0.848;2023-04-03T15:30:46;8.73;;;2.45;;
42742;SDS011;28397;44.552;-0.848;2023-04-03T15:33:12;6.18;;;2.30;;
42742;SDS011;28397;44.552;-0.848;2023-04-03T15:35:40;6.93;;;2.50;;
42742;SDS011;28397;44.552;-0.848;2023-04-03T15:38:06;4.63;;;2.25;;
42742;SDS011;28397;44.552;-0.848;2023-04-03T15:40:32;6.43;;;2.28;;
42742;SDS011;28397;44.552;-0.848;2023-04-03T15:42:57;10.00;;;3.00;;
42742;SDS011;28397;44.552;-0.848;2023-04-03T15:45:23;12.18;;;3.50;;
42742;SDS011;28397;44.552;-0.848;2023-04-03T15:47:49;7.25;;;2.70;;
42742;SDS011;28397;44.552;-0.848;2023-04-03T15:50:15;6.18;;;2.80;;
42742;SDS011;28397;44.552;-0.848;2023-04-03T15:52:41;7.28;;;3.50;;
42742;SDS011;28397;44.552;-0.848;2023-04-03T15:55:07;8.05;;;4.13;;
42742;SDS011;28397;44.552;-0.848;2023-04-03T15:57:32;6.85;;;2.80;;
42742;SDS011;28397;44.552;-0.848;2023-04-03T15:59:58;8.02;;;3.10;;
42742;SDS011;28397;44.552;-0.848;2023-04-03T16:02:24;6.43;;;2.53;;
42742;SDS011;28397;44.552;-0.848;2023-04-03T16:04:52;7.18;;;2.88;;
42742;SDS011;28397;44.552;-0.848;2023-04-03T16:07:19;5.90;;;2.35;;
42742;SDS011;28397;44.552;-0.848;2023-04-03T16:09:45;5.20;;;2.30;;
42742;SDS011;28397;44.552;-0.848;2023-04-03T16:12:11;6.15;;;2.38;;
42742;SDS011;28397;44.552;-0.848;2023-04-03T16:14:36;5.20;;;2.33;;
42742;SDS011;28397;44.552;-0.848;2023-04-03T16:17:02;5.93;;;2.30;;
42742;SDS011;28397;44.552;-0.848;2023-04-03T16:19:28;7.47;;;2.60;;
42742;SDS011;28397;44.552;-0.848;2023-04-03T16:21:55;4.10;;;2.33;;
42742;SDS011;28397;44.552;-0.848;2023-04-03T16:24:21;8.77;;;3.65;;
42742;SDS011;28397;44.552;-0.848;2023-04-03T16:26:47;10.15;;;5.55;;
42742;SDS011;28397;44.552;-0.848;2023-04-03T16:29:13;11.13;;;5.32;;
42742;SDS011;28397;44.552;-0.848;2023-04-03T16:31:38;9.90;;;5.93;;
42742;SDS011;28397;44.552;-0.848;2023-04-03T16:34:04;7.85;;;3.40;;
42742;SDS011;28397;44.552;-0.848;2023-04-03T16:36:30;8.68;;;3.60;;
42742;SDS011;28397;44.552;-0.848;2023-04-03T16:38:56;8.18;;;4.25;;
42742;SDS011;28397;44.552;-0.848;2023-04-03T16:41:21;7.82;;;3.70;;
42742;SDS011;28397;44.552;-0.848;2023-04-03T16:43:47;11.50;;;6.63;;
42742;SDS011;28397;44.552;-0.848;2023-04-03T16:46:13;12.02;;;8.38;;
42742;SDS011;28397;44.552;-0.848;2023-04-03T16:48:38;10.30;;;7.05;;
42742;SDS011;28397;44.552;-0.848;2023-04-03T16:51:04;13.45;;;8.98;;
42742;SDS011;28397;44.552;-0.848;2023-04-03T16:53:30;11.02;;;5.72;;
42742;SDS011;28397;44.552;-0.848;2023-04-03T16:55:57;14.40;;;9.93;;
42742;SDS011;28397;44.552;-0.848;2023-04-03T16:58:23;13.07;;;9.40;;